Time;durP1;ratioP1;P1;durP2;ratioP2;P2;SDS_P1;SDS_P2;PMS_P1;PMS_P2;Temp;Humidity;BMP_temperature;BMP_pressure;BME280_temperature;BME280_humidity;BME280_pressure;Samples;Min_cycle;Max_cycle;Signal;HPM_P1;HPM_P2
2021/05/09 00:05:37;;;;;;;6.85;3.08;;;9.70;64.40;;;;;;5046253;28;20044;-89
2021/05/09 00:11:25;;;;;;;8.68;3.05;;;9.60;64.50;;;;;;5041077;28;20043;-89
2021/05/09 00:17:14;;;;;;;7.32;3.10;;;9.40;64.50;;;;;;5035538;28;20504;-86
2021/05/09 00:23:02;;;;;;;8.32;3.03;;;9.40;64.50;;;;;;5036567;28;20397;-87
2021/05/09 00:28:50;;;;;;;7.28;3.30;;;9.20;64.50;;;;;;5036410;28;20602;-87
2021/05/09 00:34:41;;;;;;;7.50;3.08;;;9.20;64.60;;;;;;5036027;28;20076;-87
2021/05/09 00:40:28;;;;;;;7.70;3.38;;;9.10;64.60;;;;;;5036253;28;20037;-89
2021/05/09 00:46:17;;;;;;;7.00;3.00;;;9.00;64.80;;;;;;5036137;28;20037;-88
2021/05/09 00:52:12;;;;;;;6.32;2.90;;;9.00;64.80;;;;;;5035903;28;20071;-88
2021/05/09 00:58:01;;;;;;;6.22;2.75;;;8.80;64.80;;;;;;5035945;28;20040;-88
2021/05/09 01:07:44;;;;;;;5.50;2.78;;;8.70;64.90;;;;;;5035735;28;20037;-88
2021/05/09 01:13:34;;;;;;;7.65;3.17;;;8.60;65.10;;;;;;5035380;28;20388;-88
2021/05/09 01:19:22;;;;;;;6.82;2.88;;;8.60;65.00;;;;;;5035166;28;20032;-90
2021/05/09 01:25:12;;;;;;;7.97;3.33;;;8.60;65.10;;;;;;5035661;28;20500;-90
2021/05/09 01:31:00;;;;;;;5.40;2.83;;;8.50;65.10;;;;;;5035515;28;20040;-89
2021/05/09 01:36:49;;;;;;;7.10;3.25;;;8.40;65.10;;;;;;5035943;28;20107;-89
2021/05/09 01:42:38;;;;;;;8.32;3.13;;;8.30;64.90;;;;;;5035020;28;20500;-89
2021/05/09 01:48:28;;;;;;;7.50;3.03;;;8.30;65.30;;;;;;5035035;28;20040;-89
2021/05/09 01:54:17;;;;;;;6.55;3.00;;;8.20;65.20;;;;;;5034411;28;20084;-87
2021/05/09 02:00:11;;;;;;;9.52;3.10;;;8.10;65.30;;;;;;5034509;28;20492;-87
2021/05/09 02:09:54;;;;;;;8.05;3.58;;;7.90;65.10;;;;;;5014925;28;20045;-87
2021/05/09 02:15:43;;;;;;;7.28;3.10;;;7.80;65.20;;;;;;5014478;28;20040;-87
2021/05/09 02:21:32;;;;;;;7.07;3.17;;;7.70;65.40;;;;;;5014768;28;20436;-89
2021/05/09 02:27:20;;;;;;;9.73;3.08;;;7.80;65.60;;;;;;5014313;28;20541;-87
2021/05/09 02:33:15;;;;;;;7.20;3.08;;;7.70;65.50;;;;;;5014388;28;20374;-88
2021/05/09 02:39:04;;;;;;;7.53;3.25;;;7.70;65.50;;;;;;5016383;28;20084;-88
2021/05/09 02:44:52;;;;;;;7.47;3.15;;;7.70;65.60;;;;;;5014339;28;20168;-88
2021/05/09 02:50:41;;;;;;;7.05;3.13;;;7.60;65.70;;;;;;5014159;28;20049;-87
2021/05/09 02:56:29;;;;;;;7.55;3.05;;;7.50;65.70;;;;;;5014838;28;20037;-92
2021/05/09 03:02:19;;;;;;;6.47;3.20;;;7.50;65.90;;;;;;5014350;28;20095;-91
2021/05/09 03:12:01;;;;;;;8.80;3.33;;;7.50;65.90;;;;;;5033942;28;20032;-89
2021/05/09 03:17:50;;;;;;;7.78;3.58;;;7.40;66.00;;;;;;5033833;28;20121;-91
2021/05/09 03:23:37;;;;;;;6.88;3.10;;;7.40;66.00;;;;;;5033423;28;20113;-89
2021/05/09 03:29:26;;;;;;;8.15;3.63;;;7.30;66.00;;;;;;5033625;28;20079;-89
2021/05/09 03:35:14;;;;;;;8.40;3.35;;;7.30;66.10;;;;;;5033266;28;20099;-89
2021/05/09 03:41:02;;;;;;;7.72;3.55;;;7.30;66.10;;;;;;5033382;28;20045;-89
2021/05/09 03:46:50;;;;;;;8.40;3.60;;;7.30;66.30;;;;;;5034023;28;20029;-91
2021/05/09 03:52:38;;;;;;;7.15;3.30;;;7.20;66.20;;;;;;5035861;28;20044;-91
2021/05/09 03:58:27;;;;;;;8.23;3.70;;;7.20;66.40;;;;;;5037513;28;20028;-91
2021/05/09 04:04:16;;;;;;;7.47;3.35;;;7.20;66.50;;;;;;5038004;28;20079;-91
2021/05/09 04:14:00;;;;;;;7.88;3.40;;;7.30;66.70;;;;;;5038207;28;20161;-93
2021/05/09 04:19:48;;;;;;;10.57;3.65;;;7.30;66.90;;;;;;5052508;28;20455;-88
2021/05/09 04:25:39;;;;;;;7.00;3.30;;;7.40;66.90;;;;;;5049877;28;20083;-88
2021/05/09 04:31:28;;;;;;;7.18;3.45;;;7.50;67.20;;;;;;5040592;28;20028;-88
2021/05/09 04:37:16;;;;;;;8.38;3.58;;;7.60;67.40;;;;;;5038588;28;20041;-91
2021/05/09 04:43:13;;;;;;;6.85;3.15;;;7.80;67.40;;;;;;5036963;28;20135;-92
2021/05/09 04:49:03;;;;;;;6.40;3.20;;;8.00;67.70;;;;;;5036759;28;20052;-91
2021/05/09 04:54:51;;;;;;;7.22;3.38;;;8.20;67.90;;;;;;5035612;28;20040;-88
2021/05/09 05:00:40;;;;;;;8.07;3.10;;;8.40;68.00;;;;;;5035830;28;20028;-88
2021/05/09 05:06:29;;;;;;;7.43;3.30;;;8.60;68.20;;;;;;5035715;28;20121;-88
2021/05/09 05:16:14;;;;;;;6.20;2.88;;;8.90;68.00;;;;;;5040544;28;20056;-88
2021/05/09 05:22:04;;;;;;;7.43;3.25;;;9.10;68.30;;;;;;5035266;28;20090;-88
2021/05/09 05:27:53;;;;;;;5.80;2.90;;;9.40;68.60;;;;;;5035099;28;20024;-88
2021/05/09 05:33:41;;;;;;;5.93;2.97;;;9.70;68.80;;;;;;5034840;28;20053;-85
2021/05/09 05:39:30;;;;;;;7.10;2.97;;;10.00;69.00;;;;;;5034775;28;20036;-88
2021/05/09 05:45:20;;;;;;;6.00;2.60;;;10.30;69.00;;;;;;5034777;28;20044;-85
2021/05/09 05:51:08;;;;;;;6.05;2.72;;;10.60;69.20;;;;;;5034633;28;20027;-84
2021/05/09 05:56:56;;;;;;;5.78;2.60;;;10.90;69.10;;;;;;5035767;28;20088;-84
2021/05/09 06:02:45;;;;;;;6.90;2.50;;;11.10;69.00;;;;;;5034670;28;20028;-86
2021/05/09 06:08:32;;;;;;;6.00;2.38;;;11.40;69.30;;;;;;5034733;28;20079;-87
2021/05/09 06:18:15;;;;;;;5.22;2.47;;;11.80;69.30;;;;;;5034695;28;20103;-88
2021/05/09 06:24:04;;;;;;;7.05;2.60;;;12.20;69.50;;;;;;5034066;28;20083;-89
2021/05/09 06:29:56;;;;;;;6.32;2.85;;;12.40;69.50;;;;;;5034531;28;20116;-87
2021/05/09 06:52:51;;;;;;;4.72;2.38;;;13.70;69.70;;;;;;4915750;29;20458;-89
2021/05/09 06:58:38;;;;;;;4.22;2.08;;;14.00;69.80;;;;;;4915734;29;20043;-90
2021/05/09 07:04:29;;;;;;;6.25;1.98;;;14.30;69.70;;;;;;4915232;29;20055;-87
2021/05/09 07:10:22;;;;;;;4.22;1.90;;;14.60;69.90;;;;;;4915777;29;20052;-87
2021/05/09 07:19:45;;;;;;;4.32;1.90;;;15.10;69.80;;;;;;4915380;29;20039;-86
2021/05/09 07:25:34;;;;;;;4.68;1.92;;;15.40;69.90;;;;;;5033570;28;20060;-85
2021/05/09 07:31:25;;;;;;;3.33;1.83;;;15.70;70.00;;;;;;5037455;28;20032;-87
2021/05/09 07:37:14;;;;;;;6.18;2.42;;;16.10;70.00;;;;;;5037125;28;20071;-88
2021/05/09 07:43:03;;;;;;;2.95;1.83;;;16.40;69.90;;;;;;5037102;28;20072;-86
2021/05/09 07:48:52;;;;;;;4.22;1.92;;;16.70;69.90;;;;;;5036931;28;20082;-85
2021/05/09 07:54:43;;;;;;;2.65;1.65;;;16.90;69.70;;;;;;5036827;28;20068;-86
2021/05/09 08:00:31;;;;;;;4.55;2.00;;;17.20;69.80;;;;;;5039724;28;20384;-84
2021/05/09 08:06:19;;;;;;;4.70;1.90;;;17.50;70.00;;;;;;5036990;28;20091;-85
2021/05/09 08:12:08;;;;;;;3.45;1.80;;;17.90;69.90;;;;;;5036788;28;20051;-85
2021/05/09 08:21:47;;;;;;;3.25;1.80;;;18.50;70.10;;;;;;5036774;28;20544;-88
2021/05/09 08:27:36;;;;;;;2.92;1.63;;;18.80;69.70;;;;;;5036551;28;20036;-88
2021/05/09 08:33:24;;;;;;;10.88;5.50;;;19.20;69.60;;;;;;5037671;28;20036;-89
2021/05/09 08:39:12;;;;;;;2.60;1.70;;;19.40;69.30;;;;;;5040473;28;20036;-88
2021/05/09 08:45:00;;;;;;;4.88;1.75;;;19.80;69.50;;;;;;5037331;28;20063;-86
2021/05/09 08:50:50;;;;;;;4.70;1.70;;;20.20;69.30;;;;;;5036606;28;20052;-89
2021/05/09 08:56:38;;;;;;;2.40;1.60;;;20.40;69.10;;;;;;5036365;28;20080;-88
2021/05/09 09:02:27;;;;;;;2.85;1.70;;;20.70;69.00;;;;;;5036194;28;20036;-88
2021/05/09 09:08:17;;;;;;;2.30;1.60;;;21.10;68.90;;;;;;5035561;28;20076;-89
2021/05/09 09:14:12;;;;;;;1.77;1.45;;;21.50;68.90;;;;;;5035589;28;20036;-90
2021/05/09 09:24:00;;;;;;;3.28;1.80;;;22.00;68.50;;;;;;5035579;28;20109;-89
2021/05/09 09:30:02;;;;;;;5.55;2.65;;;22.30;68.20;;;;;;5035210;28;20063;-89
2021/05/09 09:35:54;;;;;;;3.28;1.60;;;22.70;67.80;;;;;;5035383;28;20044;-89
2021/05/09 09:41:49;;;;;;;1.92;1.40;;;23.00;67.90;;;;;;5034821;28;20028;-87
2021/05/09 09:48:06;;;;;;;1.50;1.35;;;23.50;67.90;;;;;;5035431;28;20558;-89
2021/05/09 09:53:58;;;;;;;3.30;1.52;;;23.90;67.40;;;;;;5035371;28;20037;-88
2021/05/09 10:00:12;;;;;;;4.32;1.60;;;24.30;67.30;;;;;;5034578;28;20083;-87
2021/05/09 10:06:02;;;;;;;2.60;1.70;;;24.70;67.10;;;;;;5034728;28;20388;-90
2021/05/09 10:11:54;;;;;;;7.22;1.60;;;25.10;66.80;;;;;;5034585;28;20032;-89
2021/05/09 10:17:46;;;;;;;2.20;1.65;;;25.50;66.60;;;;;;5034652;28;20527;-91
2021/05/09 10:23:35;;;;;;;3.60;1.80;;;25.90;66.40;;;;;;5034507;28;20117;-90
2021/05/09 10:29:39;;;;;;;1.67;1.40;;;26.30;66.10;;;;;;5034310;28;20036;-89
2021/05/09 10:35:36;;;;;;;3.08;1.60;;;26.70;66.00;;;;;;5034336;28;20056;-91
2021/05/09 10:41:24;;;;;;;7.30;2.75;;;27.20;65.80;;;;;;5034054;28;20066;-91
2021/05/09 10:47:33;;;;;;;1.35;1.10;;;27.70;65.40;;;;;;5034170;28;20096;-89
2021/05/09 10:53:35;;;;;;;1.30;1.20;;;28.10;65.40;;;;;;5033635;28;20072;-88
2021/05/09 11:00:03;;;;;;;1.55;1.30;;;28.70;65.10;;;;;;5033797;28;20032;-91
2021/05/09 11:06:08;;;;;;;3.35;1.50;;;29.50;65.40;;;;;;5033649;28;20381;-89
2021/05/09 11:12:00;;;;;;;2.97;1.60;;;30.60;66.40;;;;;;5033681;28;20607;-88
2021/05/09 11:17:49;;;;;;;2.40;1.50;;;31.60;65.90;;;;;;5033350;28;20155;-90
2021/05/09 11:23:40;;;;;;;1.58;1.35;;;32.90;66.50;;;;;;5033651;28;20131;-90
2021/05/09 11:29:30;;;;;;;2.25;1.30;;;34.10;65.10;;;;;;5033689;28;20425;-89
2021/05/09 11:35:19;;;;;;;3.80;1.40;;;34.50;63.80;;;;;;5033189;28;20130;-91
2021/05/09 11:41:07;;;;;;;3.33;1.50;;;35.40;64.50;;;;;;5033486;28;20033;-88
2021/05/09 11:46:57;;;;;;;2.85;1.40;;;36.60;63.20;;;;;;5033309;28;20397;-88
2021/05/09 11:52:46;;;;;;;2.78;1.30;;;38.00;62.40;;;;;;5033434;28;20087;-89
2021/05/09 11:58:35;;;;;;;2.45;1.30;;;39.10;60.40;;;;;;5033548;28;20044;-89
2021/05/09 12:04:28;;;;;;;2.50;1.50;;;40.20;59.80;;;;;;5033767;28;20040;-90
2021/05/09 12:10:29;;;;;;;1.38;1.27;;;41.10;57.50;;;;;;5033831;28;20420;-89
2021/05/09 12:16:18;;;;;;;3.50;1.90;;;42.00;56.90;;;;;;5036954;28;20175;-90
2021/05/09 12:26:08;;;;;;;40.35;37.08;;;43.90;55.90;;;;;;5036357;28;20052;-89
2021/05/09 12:32:19;;;;;;;75.57;68.38;;;44.50;52.80;;;;;;5036808;28;20028;-87
2021/05/09 12:38:08;;;;;;;17.77;13.82;;;45.30;52.10;;;;;;5036449;28;20481;-88
2021/05/09 12:43:57;;;;;;;5.38;3.22;;;46.10;50.50;;;;;;5043303;28;20417;-87
2021/05/09 12:49:57;;;;;;;2.63;1.73;;;47.00;48.70;;;;;;5046358;28;20032;-89
2021/05/09 12:55:46;;;;;;;1.80;1.70;;;47.60;47.70;;;;;;5050356;28;20044;-90
2021/05/09 13:01:40;;;;;;;1.90;1.80;;;48.40;46.90;;;;;;5038195;28;20036;-91
2021/05/09 13:07:28;;;;;;;;;;;49.20;47.00;;;;;;5036901;28;20075;-92
2021/05/09 13:13:17;;;;;;;3.67;2.63;;;50.10;43.80;;;;;;5036471;28;20171;-93
2021/05/09 13:19:05;;;;;;;3.92;2.60;;;50.60;43.80;;;;;;5036385;28;20443;-91
2021/05/09 13:28:54;;;;;;;5.47;3.15;;;52.20;41.90;;;;;;5035627;28;20418;-91
2021/05/09 13:34:42;;;;;;;4.03;3.10;;;52.90;38.90;;;;;;5035656;28;20020;-89
2021/05/09 13:40:31;;;;;;;4.55;3.28;;;53.20;37.30;;;;;;5036355;28;20052;-90
2021/05/09 13:46:19;;;;;;;3.80;3.20;;;53.50;34.90;;;;;;5035761;28;20096;-92
2021/05/09 13:52:07;;;;;;;5.30;3.53;;;54.40;33.60;;;;;;5035376;28;20025;-92
2021/05/09 13:57:57;;;;;;;4.97;3.90;;;54.90;32.00;;;;;;5035915;28;20103;-90
2021/05/09 14:03:49;;;;;;;6.55;4.40;;;55.20;30.60;;;;;;5035152;28;20277;-91
2021/05/09 14:09:37;;;;;;;5.65;4.55;;;56.10;29.80;;;;;;5035049;28;20082;-90
2021/05/09 14:15:25;;;;;;;6.55;4.90;;;56.70;28.70;;;;;;5034624;28;20108;-91
2021/05/09 14:22:13;;;;;;;5.82;4.82;;;56.80;27.20;;;;;;5034363;28;20036;-90
2021/05/09 15:36:18;;;;;;;2.03;1.80;;;45.40;22.10;;;;;;4786403;30;20412;-87
2021/05/09 15:55:54;;;;;;;2.83;1.90;;;44.20;22.40;;;;;;4685636;30;20036;-90
2021/05/09 16:22:39;;;;;;;;;;;;;;;;;;;;;
2021/05/09 17:05:38;;;;;;;2.42;1.80;;;40.90;21.60;;;;;;4849465;29;20053;-86
2021/05/09 17:11:29;;;;;;;3.38;1.88;;;40.40;21.00;;;;;;4845728;29;20045;-88
2021/05/09 17:17:18;;;;;;;2.83;1.60;;;39.40;21.60;;;;;;4844858;29;20033;-88
2021/05/09 17:33:30;;;;;;;1.58;1.48;;;38.00;21.50;;;;;;4845014;29;20057;-91
2021/05/09 17:39:19;;;;;;;2.20;1.67;;;36.50;21.10;;;;;;4844687;29;20094;-90
2021/05/09 17:45:59;;;;;;;2.85;1.40;;;34.80;20.90;;;;;;4844208;29;20045;-89
2021/05/09 18:34:48;;;;;;;2.60;1.35;;;28.20;21.40;;;;;;4843706;29;20041;-86
2021/05/09 18:40:36;;;;;;;2.00;1.40;;;27.70;21.50;;;;;;4847947;29;20068;-85
2021/05/09 18:46:24;;;;;;;1.73;1.50;;;27.30;21.60;;;;;;4843295;29;20113;-86
2021/05/09 18:52:14;;;;;;;4.93;2.17;;;26.80;21.70;;;;;;4838436;29;20558;-86
2021/05/09 18:58:02;;;;;;;3.13;1.73;;;26.40;21.80;;;;;;4842978;29;20062;-86
2021/05/09 19:03:53;;;;;;;3.15;1.60;;;26.00;21.80;;;;;;4843192;29;20037;-86
2021/05/09 19:09:43;;;;;;;1.65;1.50;;;25.50;21.80;;;;;;4842919;29;20146;-87
2021/05/09 19:15:32;;;;;;;1.85;1.55;;;25.10;21.90;;;;;;4843121;29;20383;-87
2021/05/09 19:21:20;;;;;;;1.85;1.48;;;24.80;22.00;;;;;;4842956;29;20082;-90
2021/05/09 19:27:09;;;;;;;1.52;1.30;;;24.40;22.10;;;;;;4847329;29;20129;-89
2021/05/09 19:36:59;;;;;;;1.50;1.40;;;24.10;22.30;;;;;;4846707;29;20052;-89
2021/05/09 19:42:48;;;;;;;3.03;1.70;;;23.60;22.40;;;;;;4846509;29;20029;-88
2021/05/09 19:48:37;;;;;;;2.35;1.60;;;23.30;22.60;;;;;;4846941;29;20069;-90
2021/05/09 19:54:27;;;;;;;2.35;1.73;;;22.90;22.70;;;;;;4846825;29;20125;-93
2021/05/09 20:00:19;;;;;;;3.63;1.75;;;22.50;22.90;;;;;;4846547;29;20040;-93
2021/05/09 20:06:08;;;;;;;3.05;1.80;;;22.00;23.10;;;;;;4846820;29;20084;-93
2021/05/09 20:11:57;;;;;;;4.40;2.30;;;21.70;23.20;;;;;;4846363;29;20037;-93
2021/05/09 20:17:47;;;;;;;5.57;2.10;;;21.50;23.50;;;;;;4846546;29;20086;-93
2021/05/09 20:23:36;;;;;;;4.47;2.00;;;21.10;23.60;;;;;;4846603;29;20167;-92
2021/05/09 20:29:29;;;;;;;12.05;4.57;;;20.80;23.80;;;;;;4846414;29;20083;-92
2021/05/09 20:39:19;;;;;;;5.70;2.67;;;20.40;24.10;;;;;;4846200;29;20045;-94
2021/05/09 20:45:09;;;;;;;5.35;2.30;;;20.00;24.30;;;;;;4845523;29;20122;-91
2021/05/09 20:50:59;;;;;;;5.63;2.50;;;19.80;24.50;;;;;;4845271;29;20037;-90
2021/05/09 20:56:48;;;;;;;5.82;2.20;;;19.50;24.70;;;;;;4844914;29;20138;-88
2021/05/09 21:03:14;;;;;;;6.40;2.30;;;19.20;24.90;;;;;;4848994;29;20053;-89
2021/05/09 21:09:03;;;;;;;4.93;2.20;;;19.00;25.00;;;;;;4869306;29;20044;-86
2021/05/09 21:14:54;;;;;;;7.25;2.33;;;18.70;25.10;;;;;;4869023;29;20044;-86
2021/05/09 21:20:43;;;;;;;5.18;2.40;;;18.50;25.40;;;;;;4850799;29;20081;-89
2021/05/09 21:33:20;;;;;;;5.50;2.38;;;18.00;25.80;;;;;;4845310;29;20040;-90
2021/05/09 21:39:09;;;;;;;5.95;2.75;;;17.90;26.00;;;;;;4845195;29;20380;-90
2021/05/09 21:44:58;;;;;;;4.68;2.50;;;17.70;26.20;;;;;;4844592;29;20045;-90
2021/05/09 21:50:47;;;;;;;5.07;2.35;;;17.60;26.40;;;;;;4844981;29;20062;-90
2021/05/09 21:56:35;;;;;;;6.05;2.58;;;17.40;26.50;;;;;;4844505;29;20041;-91
2021/05/09 22:02:26;;;;;;;6.88;2.42;;;17.20;26.60;;;;;;4844129;29;20045;-89
2021/05/09 22:08:15;;;;;;;6.30;3.10;;;17.00;26.80;;;;;;4844492;29;20063;-91
2021/05/09 22:14:04;;;;;;;6.45;2.65;;;16.80;27.00;;;;;;4844267;29;20033;-90
2021/05/09 22:19:52;;;;;;;6.60;2.42;;;16.70;27.10;;;;;;4844488;29;20041;-91
2021/05/09 22:25:42;;;;;;;7.22;2.90;;;16.50;27.30;;;;;;4843689;29;20125;-90
2021/05/09 22:31:30;;;;;;;4.80;2.50;;;16.30;27.50;;;;;;4843711;29;20078;-91
2021/05/09 22:41:14;;;;;;;6.88;2.40;;;16.10;27.70;;;;;;4844047;29;20624;-90
2021/05/09 22:47:06;;;;;;;6.15;2.80;;;15.90;27.90;;;;;;4843333;29;20061;-87
2021/05/09 22:52:55;;;;;;;4.63;2.20;;;15.70;28.00;;;;;;4843290;29;20068;-88
2021/05/09 22:58:45;;;;;;;6.28;2.88;;;15.60;28.20;;;;;;4843353;29;20070;-89
2021/05/09 23:04:33;;;;;;;6.55;2.70;;;15.40;28.40;;;;;;4842960;29;20072;-88
2021/05/09 23:10:21;;;;;;;6.68;3.15;;;15.30;28.50;;;;;;4843042;29;20056;-88
2021/05/09 23:16:10;;;;;;;7.55;2.80;;;15.20;28.70;;;;;;4843431;29;20037;-90
2021/05/09 23:21:58;;;;;;;5.03;2.38;;;15.00;28.80;;;;;;4843165;29;20126;-91
2021/05/09 23:27:48;;;;;;;4.78;2.45;;;14.80;28.90;;;;;;4843331;29;20486;-90
2021/05/09 23:33:36;;;;;;;7.32;3.22;;;14.70;29.10;;;;;;4843377;29;20082;-89
2021/05/09 23:43:18;;;;;;;6.65;2.70;;;14.50;29.20;;;;;;4843079;29;20036;-88
2021/05/09 23:49:08;;;;;;;6.38;2.70;;;14.30;29.40;;;;;;4842610;29;20086;-91
2021/05/09 23:54:57;;;;;;;7.45;2.63;;;14.20;29.60;;;;;;4843089;29;20052;-90
